Time,TemperatureF,DewpointF,PressureIn,WindDirection,WindDirectionDegrees,WindSpeedMPH,WindSpeedGustMPH,Humidity,HourlyPrecipIn,Conditions,Clouds,dailyrainin,SoftwareType,DateUTC
2013-02-20 00:05:00,35.6,27.5,29.58,SW,236,13.0,13.0,72,0.00,,,0.00,Wunderground v.1.13,2013-02-20 08:05:00,
2013-02-20 00:11:00,35.5,27.4,29.58,WSW,241,10.0,10.0,72,0.00,,,0.00,Wunderground v.1.13,2013-02-20 08:11:00,
2013-02-20 00:17:00,35.2,27.7,29.59,SW,229,10.0,18.0,74,0.00,,,0.00,Wunderground v.1.13,2013-02-20 08:17:00,
2013-02-20 00:22:00,34.9,28.1,29.59,WSW,240,10.0,11.0,76,0.00,,,0.00,Wunderground v.1.13,2013-02-20 08:22:00,
2013-02-20 00:28:00,34.6,28.1,29.59,WSW,240,10.0,18.0,77,0.00,,,0.00,Wunderground v.1.13,2013-02-20 08:28:00,
2013-02-20 00:34:00,34.4,27.3,29.59,WSW,253,10.0,16.0,75,0.00,,,0.00,Wunderground v.1.13,2013-02-20 08:34:00,
2013-02-20 00:40:00,34.7,26.3,29.59,SW,230,8.0,8.0,71,0.00,,,0.00,Wunderground v.1.13,2013-02-20 08:40:00,
2013-02-20 00:46:00,34.7,25.6,29.58,SW,236,6.0,9.0,69,0.00,,,0.00,Wunderground v.1.13,2013-02-20 08:46:00,
2013-02-20 00:52:00,34.9,25.0,29.58,WSW,239,5.0,7.0,67,0.00,,,0.00,Wunderground v.1.13,2013-02-20 08:52:00,
2013-02-20 00:58:00,35.0,24.8,29.58,SSW,200,6.0,10.0,66,0.00,,,0.00,Wunderground v.1.13,2013-02-20 08:58:00,
2013-02-20 01:04:00,35.0,24.4,29.58,West,271,6.0,26.0,65,0.00,,,0.00,Wunderground v.1.13,2013-02-20 09:04:00,
2013-02-20 01:09:00,35.0,24.8,29.58,WSW,246,6.0,11.0,66,0.00,,,0.00,Wunderground v.1.13,2013-02-20 09:09:00,
2013-02-20 01:15:00,35.0,25.5,29.59,WSW,237,9.0,12.0,68,0.00,,,0.00,Wunderground v.1.13,2013-02-20 09:15:00,
2013-02-20 01:21:00,34.9,26.1,29.59,SW,229,11.0,12.0,70,0.00,,,0.00,Wunderground v.1.13,2013-02-20 09:21:00,
2013-02-20 01:27:00,34.4,26.6,29.59,SW,216,12.0,16.0,73,0.00,,,0.00,Wunderground v.1.13,2013-02-20 09:27:00,
2013-02-20 01:33:00,33.8,27.7,29.60,West,260,10.0,12.0,78,0.00,,,0.00,Wunderground v.1.13,2013-02-20 09:33:00,
2013-02-20 01:39:00,33.2,27.7,29.60,SW,227,7.0,10.0,80,0.00,,,0.00,Wunderground v.1.13,2013-02-20 09:39:00,
2013-02-20 01:45:00,33.1,27.9,29.59,SW,234,5.0,5.0,81,0.00,,,0.00,Wunderground v.1.13,2013-02-20 09:45:00,
2013-02-20 01:51:00,32.8,27.9,29.59,SSW,209,6.0,6.0,82,0.00,,,0.00,Wunderground v.1.13,2013-02-20 09:51:00,
2013-02-20 01:57:00,32.8,27.9,29.59,SW,233,6.0,6.0,82,0.00,,,0.00,Wunderground v.1.13,2013-02-20 09:57:00,
2013-02-20 02:02:00,33.1,27.6,29.59,WSW,246,7.0,13.0,80,0.00,,,0.00,Wunderground v.1.13,2013-02-20 10:02:00,
2013-02-20 02:08:00,33.2,28.0,29.59,WSW,246,9.0,13.0,81,0.00,,,0.00,Wunderground v.1.13,2013-02-20 10:08:00,
2013-02-20 02:14:00,33.1,27.9,29.59,WSW,241,6.0,12.0,81,0.00,,,0.00,Wunderground v.1.13,2013-02-20 10:14:00,
2013-02-20 02:20:00,32.9,27.7,29.59,WSW,247,8.0,12.0,81,0.00,,,0.00,Wunderground v.1.13,2013-02-20 10:20:00,
2013-02-20 02:26:00,32.9,27.7,29.59,WSW,257,8.0,8.0,81,0.00,,,0.00,Wunderground v.1.13,2013-02-20 10:26:00,
2013-02-20 02:32:00,32.7,27.5,29.59,West,263,11.0,17.0,81,0.00,,,0.00,Wunderground v.1.13,2013-02-20 10:32:00,
2013-02-20 02:38:00,32.4,27.8,29.59,WSW,241,12.0,14.0,83,0.00,,,0.00,Wunderground v.1.13,2013-02-20 10:38:00,
2013-02-20 02:44:00,32.1,27.5,29.59,WSW,257,10.0,12.0,83,0.00,,,0.00,Wunderground v.1.13,2013-02-20 10:44:00,
2013-02-20 02:49:00,31.9,27.6,29.59,West,264,8.0,12.0,84,0.00,,,0.00,Wunderground v.1.13,2013-02-20 10:49:00,
2013-02-20 02:55:00,31.9,27.3,29.59,WSW,257,6.0,7.0,83,0.00,,,0.00,Wunderground v.1.13,2013-02-20 10:55:00,
2013-02-20 03:01:00,32.2,27.0,29.59,West,261,4.0,22.0,81,0.00,,,0.00,Wunderground v.1.13,2013-02-20 11:01:00,
2013-02-20 03:07:00,32.5,26.7,29.59,WNW,298,4.0,4.0,79,0.00,,,0.00,Wunderground v.1.13,2013-02-20 11:07:00,
2013-02-20 03:12:00,32.8,26.1,29.59,West,274,3.0,5.0,76,0.00,,,0.00,Wunderground v.1.13,2013-02-20 11:12:00,
2013-02-20 03:18:00,33.2,24.8,29.59,West,264,3.0,5.0,71,0.00,,,0.00,Wunderground v.1.13,2013-02-20 11:18:00,
2013-02-20 03:24:00,33.2,25.8,29.59,WSW,253,5.0,10.0,74,0.00,,,0.00,Wunderground v.1.13,2013-02-20 11:24:00,
2013-02-20 03:30:00,32.8,26.1,29.59,WSW,244,3.0,3.0,76,0.00,,,0.00,Wunderground v.1.13,2013-02-20 11:30:00,
2013-02-20 03:36:00,32.5,25.8,29.59,WNW,299,1.0,3.0,76,0.00,,,0.00,Wunderground v.1.13,2013-02-20 11:36:00,
2013-02-20 03:42:00,32.7,25.0,29.59,WNW,301,1.0,2.0,73,0.00,,,0.00,Wunderground v.1.13,2013-02-20 11:42:00,
2013-02-20 03:48:00,33.1,23.7,29.60,WSW,258,2.0,4.0,68,0.00,,,0.00,Wunderground v.1.13,2013-02-20 11:48:00,
2013-02-20 03:54:00,33.4,23.3,29.60,WSW,251,2.0,4.0,66,0.00,,,0.00,Wunderground v.1.13,2013-02-20 11:54:00,
2013-02-20 04:00:00,33.4,23.6,29.61,WSW,244,2.0,2.0,67,0.00,,,0.00,Wunderground v.1.13,2013-02-20 12:00:00,
2013-02-20 04:05:00,33.2,23.4,29.61,SW,226,3.0,7.0,67,0.00,,,0.00,Wunderground v.1.13,2013-02-20 12:05:00,
2013-02-20 04:11:00,33.2,23.4,29.61,SW,222,4.0,5.0,67,0.00,,,0.00,Wunderground v.1.13,2013-02-20 12:11:00,
2013-02-20 04:17:00,33.5,22.6,29.61,WSW,244,3.0,3.0,64,0.00,,,0.00,Wunderground v.1.13,2013-02-20 12:17:00,
2013-02-20 04:23:00,33.4,23.6,29.61,SW,217,4.0,11.0,67,0.00,,,0.00,Wunderground v.1.13,2013-02-20 12:23:00,
2013-02-20 04:29:00,33.4,22.9,29.61,SW,232,5.0,13.0,65,0.00,,,0.00,Wunderground v.1.13,2013-02-20 12:29:00,
2013-02-20 04:35:00,34.3,20.6,29.61,WSW,239,6.0,6.0,57,0.00,,,0.00,Wunderground v.1.13,2013-02-20 12:35:00,
2013-02-20 04:41:00,34.9,19.9,29.61,WSW,237,4.0,4.0,54,0.00,,,0.00,Wunderground v.1.13,2013-02-20 12:41:00,
2013-02-20 04:47:00,35.0,20.4,29.61,WSW,237,3.0,6.0,55,0.00,,,0.00,Wunderground v.1.13,2013-02-20 12:47:00,
2013-02-20 04:53:00,35.2,20.2,29.61,WNW,294,3.0,8.0,54,0.00,,,0.00,Wunderground v.1.13,2013-02-20 12:53:00,
2013-02-20 04:59:00,35.8,20.3,29.61,West,265,5.0,12.0,53,0.00,,,0.00,Wunderground v.1.13,2013-02-20 12:59:00,
2013-02-20 05:05:00,36.2,20.2,29.61,West,272,6.0,6.0,52,0.00,,,0.00,Wunderground v.1.13,2013-02-20 13:05:00,
2013-02-20 05:11:00,36.5,21.0,29.61,West,267,7.0,14.0,53,0.00,,,0.00,Wunderground v.1.13,2013-02-20 13:11:00,
2013-02-20 05:17:00,36.5,22.3,29.62,West,272,8.0,8.0,56,0.00,,,0.00,Wunderground v.1.13,2013-02-20 13:17:00,
2013-02-20 05:23:00,36.5,22.3,29.62,West,278,8.0,10.0,56,0.00,,,0.00,Wunderground v.1.13,2013-02-20 13:23:00,
2013-02-20 05:29:00,36.3,22.5,29.63,WSW,256,9.0,18.0,57,0.00,,,0.00,Wunderground v.1.13,2013-02-20 13:29:00,
2013-02-20 05:35:00,36.3,22.9,29.63,North,359,9.0,11.0,58,0.00,,,0.00,Wunderground v.1.13,2013-02-20 13:35:00,
2013-02-20 05:41:00,36.5,22.7,29.63,SW,229,9.0,17.0,57,0.00,,,0.00,Wunderground v.1.13,2013-02-20 13:41:00,
2013-02-20 05:47:00,36.5,22.7,29.63,WNW,294,11.0,29.0,57,0.00,,,0.00,Wunderground v.1.13,2013-02-20 13:47:00,
2013-02-20 05:52:00,36.5,22.7,29.63,WNW,295,10.0,11.0,57,0.00,,,0.00,Wunderground v.1.13,2013-02-20 13:52:00,
2013-02-20 05:58:00,36.6,22.4,29.63,NW,322,10.0,18.0,56,0.00,,,0.00,Wunderground v.1.13,2013-02-20 13:58:00,
2013-02-20 06:04:00,36.6,21.9,29.64,SW,234,10.0,16.0,55,0.00,,,0.00,Wunderground v.1.13,2013-02-20 14:04:00,
2013-02-20 06:10:00,36.8,22.1,29.64,West,263,9.0,9.0,55,0.00,,,0.00,Wunderground v.1.13,2013-02-20 14:10:00,
2013-02-20 06:16:00,36.9,22.2,29.64,WNW,298,10.0,13.0,55,0.00,,,0.00,Wunderground v.1.13,2013-02-20 14:16:00,
2013-02-20 06:22:00,37.0,22.3,29.64,WNW,285,9.0,16.0,55,0.00,,,0.00,Wunderground v.1.13,2013-02-20 14:22:00,
2013-02-20 06:28:00,37.2,22.5,29.64,NW,311,12.0,17.0,55,0.00,,,0.00,Wunderground v.1.13,2013-02-20 14:28:00,
2013-02-20 06:33:00,37.0,22.3,29.65,West,270,12.0,17.0,55,0.00,,,0.00,Wunderground v.1.13,2013-02-20 14:33:00,
2013-02-20 06:38:00,37.0,22.7,29.65,WNW,296,11.0,12.0,56,0.00,,,0.00,Wunderground v.1.13,2013-02-20 14:38:00,
2013-02-20 06:44:00,37.0,22.3,29.65,WNW,285,10.0,11.0,55,0.00,,,0.00,Wunderground v.1.13,2013-02-20 14:44:00,
2013-02-20 06:50:00,37.2,21.6,29.65,WSW,248,10.0,10.0,53,0.00,,,0.00,Wunderground v.1.13,2013-02-20 14:50:00,
2013-02-20 06:56:00,37.5,21.5,29.65,West,275,10.0,10.0,52,0.00,,,0.00,Wunderground v.1.13,2013-02-20 14:56:00,
2013-02-20 07:02:00,37.8,20.8,29.66,WSW,257,7.0,29.0,50,0.00,,,0.00,Wunderground v.1.13,2013-02-20 15:02:00,
2013-02-20 07:08:00,37.9,21.8,29.66,SSW,203,3.0,6.0,52,0.00,,,0.00,Wunderground v.1.13,2013-02-20 15:08:00,
2013-02-20 07:14:00,37.9,22.3,29.66,SSW,203,0.0,2.0,53,0.00,,,0.00,Wunderground v.1.13,2013-02-20 15:14:00,
2013-02-20 07:19:00,37.8,22.2,29.68,SSW,203,0.0,0.0,53,0.00,,,0.00,Wunderground v.1.13,2013-02-20 15:19:00,
2013-02-20 07:25:00,37.9,22.3,29.68,SSW,195,0.0,0.0,53,0.00,,,0.00,Wunderground v.1.13,2013-02-20 15:25:00,
2013-02-20 07:31:00,38.0,22.4,29.68,SSE,158,0.0,0.0,53,0.00,,,0.00,Wunderground v.1.13,2013-02-20 15:31:00,
2013-02-20 07:37:00,38.2,20.7,29.68,West,264,1.0,5.0,49,0.00,,,0.00,Wunderground v.1.13,2013-02-20 15:37:00,
2013-02-20 07:43:00,38.8,19.8,29.68,WNW,299,3.0,5.0,46,0.00,,,0.00,Wunderground v.1.13,2013-02-20 15:43:00,
2013-02-20 07:49:00,38.5,22.8,29.70,West,264,3.0,6.0,53,0.00,,,0.00,Wunderground v.1.13,2013-02-20 15:49:00,
2013-02-20 07:55:00,38.0,23.3,29.70,NW,326,2.0,2.0,55,0.00,,,0.00,Wunderground v.1.13,2013-02-20 15:55:00,
2013-02-20 08:01:00,38.0,21.9,29.72,NE,45,2.0,6.0,52,0.00,,,0.00,Wunderground v.1.13,2013-02-20 16:01:00,
2013-02-20 08:06:00,38.9,22.3,29.72,North,0,2.0,8.0,51,0.00,,,0.00,Wunderground v.1.13,2013-02-20 16:06:00,
2013-02-20 08:12:00,39.6,22.5,29.72,NW,309,3.0,5.0,50,0.00,,,0.00,Wunderground v.1.13,2013-02-20 16:12:00,
2013-02-20 08:18:00,40.2,23.0,29.73,WNW,287,2.0,4.0,50,0.00,,,0.00,Wunderground v.1.13,2013-02-20 16:18:00,
2013-02-20 08:24:00,40.6,22.4,29.73,WNW,294,2.0,3.0,48,0.00,,,0.00,Wunderground v.1.13,2013-02-20 16:24:00,
2013-02-20 08:30:00,40.9,21.7,29.73,SW,234,2.0,9.0,46,0.00,,,0.00,Wunderground v.1.13,2013-02-20 16:30:00,
2013-02-20 08:36:00,42.2,20.2,29.73,SW,216,6.0,8.0,41,0.00,,,0.00,Wunderground v.1.13,2013-02-20 16:36:00,
2013-02-20 08:42:00,42.9,20.2,29.73,WNW,296,7.0,8.0,40,0.00,,,0.00,Wunderground v.1.13,2013-02-20 16:42:00,
2013-02-20 08:48:00,43.6,20.2,29.73,North,350,5.0,6.0,39,0.00,,,0.00,Wunderground v.1.13,2013-02-20 16:48:00,
2013-02-20 08:54:00,44.5,21.0,29.73,NNW,328,5.0,10.0,39,0.00,,,0.00,Wunderground v.1.13,2013-02-20 16:54:00,
2013-02-20 09:00:00,44.8,20.7,29.73,WNW,296,6.0,6.0,38,0.00,,,0.00,Wunderground v.1.13,2013-02-20 17:00:00,
2013-02-20 09:06:00,44.8,20.7,29.73,North,353,5.0,5.0,38,0.00,,,0.00,Wunderground v.1.13,2013-02-20 17:06:00,
2013-02-20 09:11:00,44.9,21.4,29.73,WSW,241,5.0,10.0,39,0.00,,,0.00,Wunderground v.1.13,2013-02-20 17:11:00,
2013-02-20 09:17:00,44.3,25.3,29.76,SW,234,7.0,11.0,47,0.00,,,0.00,Wunderground v.1.13,2013-02-20 17:17:00,
2013-02-20 09:23:00,43.9,25.5,29.76,WNW,285,7.0,11.0,48,0.00,,,0.00,Wunderground v.1.13,2013-02-20 17:23:00,
2013-02-20 09:29:00,43.6,24.7,29.76,West,263,8.0,17.0,47,0.00,,,0.00,Wunderground v.1.13,2013-02-20 17:29:00,
2013-02-20 09:35:00,43.5,24.6,29.76,West,271,8.0,11.0,47,0.00,,,0.00,Wunderground v.1.13,2013-02-20 17:35:00,
2013-02-20 09:41:00,43.6,23.6,29.76,West,260,7.0,7.0,45,0.00,,,0.00,Wunderground v.1.13,2013-02-20 17:41:00,
2013-02-20 09:46:00,43.9,24.4,29.76,SSW,193,6.0,8.0,46,0.00,,,0.00,Wunderground v.1.13,2013-02-20 17:46:00,
2013-02-20 09:51:00,44.3,23.2,29.76,West,277,6.0,6.0,43,0.00,,,0.00,Wunderground v.1.13,2013-02-20 17:51:00,
2013-02-20 09:57:00,45.2,22.9,29.76,NNW,343,3.0,5.0,41,0.00,,,0.00,Wunderground v.1.13,2013-02-20 17:57:00,
2013-02-20 10:03:00,45.7,22.7,29.77,NNW,328,6.0,18.0,40,0.00,,,0.00,Wunderground v.1.13,2013-02-20 18:03:00,
2013-02-20 10:09:00,45.7,23.3,29.77,WNW,288,8.0,16.0,41,0.00,,,0.00,Wunderground v.1.13,2013-02-20 18:09:00,
2013-02-20 10:14:00,46.0,23.0,29.77,WSW,243,8.0,10.0,40,0.00,,,0.00,Wunderground v.1.13,2013-02-20 18:14:00,
2013-02-20 10:20:00,45.5,25.4,29.77,WSW,244,7.0,7.0,45,0.00,,,0.00,Wunderground v.1.13,2013-02-20 18:20:00,
2013-02-20 10:26:00,45.4,24.2,29.77,WSW,250,6.0,11.0,43,0.00,,,0.00,Wunderground v.1.13,2013-02-20 18:26:00,
2013-02-20 10:32:00,45.7,25.0,29.77,SSE,168,6.0,6.0,44,0.00,,,0.00,Wunderground v.1.13,2013-02-20 18:32:00,
2013-02-20 10:38:00,45.8,24.5,29.77,WSW,237,5.0,6.0,43,0.00,,,0.00,Wunderground v.1.13,2013-02-20 18:38:00,
2013-02-20 10:44:00,46.2,24.9,29.78,West,263,5.0,12.0,43,0.00,,,0.00,Wunderground v.1.13,2013-02-20 18:44:00,
2013-02-20 10:50:00,46.4,24.5,29.78,West,268,6.0,7.0,42,0.00,,,0.00,Wunderground v.1.13,2013-02-20 18:50:00,
2013-02-20 10:56:00,46.2,23.8,29.78,WSW,256,5.0,5.0,41,0.00,,,0.00,Wunderground v.1.13,2013-02-20 18:56:00,
2013-02-20 11:02:00,46.8,24.3,29.78,SSW,198,2.0,13.0,41,0.00,,,0.00,Wunderground v.1.13,2013-02-20 19:02:00,
2013-02-20 11:07:00,47.1,22.1,29.78,WSW,254,5.0,15.0,37,0.00,,,0.00,Wunderground v.1.13,2013-02-20 19:07:00,
2013-02-20 11:13:00,46.7,22.4,29.78,WSW,254,10.0,17.0,38,0.00,,,0.00,Wunderground v.1.13,2013-02-20 19:13:00,
2013-02-20 11:19:00,47.0,22.0,29.78,WNW,289,9.0,11.0,37,0.00,,,0.00,Wunderground v.1.13,2013-02-20 19:19:00,
2013-02-20 11:25:00,47.6,24.4,29.78,West,267,8.0,8.0,40,0.00,,,0.00,Wunderground v.1.13,2013-02-20 19:25:00,
2013-02-20 11:31:00,47.9,24.1,29.77,SW,234,7.0,7.0,39,0.00,,,0.00,Wunderground v.1.13,2013-02-20 19:31:00,
2013-02-20 11:37:00,47.9,23.5,29.77,SSW,202,5.0,6.0,38,0.00,,,0.00,Wunderground v.1.13,2013-02-20 19:37:00,
2013-02-20 11:43:00,47.7,24.5,29.77,WSW,258,5.0,5.0,40,0.00,,,0.00,Wunderground v.1.13,2013-02-20 19:43:00,
2013-02-20 11:49:00,48.3,23.8,29.77,SSW,199,3.0,5.0,38,0.00,,,0.00,Wunderground v.1.13,2013-02-20 19:49:00,
2013-02-20 11:55:00,48.9,24.4,29.77,ESE,117,2.0,2.0,38,0.00,,,0.00,Wunderground v.1.13,2013-02-20 19:55:00,
2013-02-20 12:01:00,49.2,22.7,29.78,SW,230,2.0,16.0,35,0.00,,,0.00,Wunderground v.1.13,2013-02-20 20:01:00,
2013-02-20 12:06:00,48.8,23.0,29.78,WSW,254,7.0,10.0,36,0.00,,,0.00,Wunderground v.1.13,2013-02-20 20:06:00,
2013-02-20 12:11:00,48.0,22.3,29.78,WSW,258,11.0,22.0,36,0.00,,,0.00,Wunderground v.1.13,2013-02-20 20:11:00,
2013-02-20 12:17:00,47.9,22.8,29.78,SW,233,12.0,14.0,37,0.00,,,0.00,Wunderground v.1.13,2013-02-20 20:17:00,
2013-02-20 12:23:00,48.0,22.9,29.78,WSW,253,12.0,15.0,37,0.00,,,0.00,Wunderground v.1.13,2013-02-20 20:23:00,
2013-02-20 12:29:00,47.6,23.2,29.78,SW,216,11.0,14.0,38,0.00,,,0.00,Wunderground v.1.13,2013-02-20 20:29:00,
2013-02-20 12:35:00,48.3,25.1,29.78,WNW,289,9.0,9.0,40,0.00,,,0.00,Wunderground v.1.13,2013-02-20 20:35:00,
2013-02-20 12:40:00,48.9,23.1,29.78,SSE,154,6.0,6.0,36,0.00,,,0.00,Wunderground v.1.13,2013-02-20 20:40:00,
2013-02-20 12:46:00,48.9,23.7,29.77,West,260,5.0,5.0,37,0.00,,,0.00,Wunderground v.1.13,2013-02-20 20:46:00,
2013-02-20 12:52:00,48.6,23.5,29.77,SW,227,5.0,5.0,37,0.00,,,0.00,Wunderground v.1.13,2013-02-20 20:52:00,
2013-02-20 12:58:00,48.8,23.6,29.77,SW,232,5.0,10.0,37,0.00,,,0.00,Wunderground v.1.13,2013-02-20 20:58:00,
2013-02-20 13:04:00,49.1,23.3,29.77,South,189,2.0,11.0,36,0.00,,,0.00,Wunderground v.1.13,2013-02-20 21:04:00,
2013-02-20 13:09:00,49.6,23.7,29.77,SW,226,2.0,5.0,36,0.00,,,0.00,Wunderground v.1.13,2013-02-20 21:09:00,
2013-02-20 13:15:00,49.6,23.7,29.78,SW,234,4.0,4.0,36,0.00,,,0.00,Wunderground v.1.13,2013-02-20 21:15:00,
2013-02-20 13:21:00,49.6,23.7,29.78,SSW,212,3.0,4.0,36,0.00,,,0.00,Wunderground v.1.13,2013-02-20 21:21:00,
2013-02-20 13:27:00,49.8,23.9,29.78,SW,215,5.0,6.0,36,0.00,,,0.00,Wunderground v.1.13,2013-02-20 21:27:00,
2013-02-20 13:33:00,49.6,23.7,29.77,SW,230,6.0,7.0,36,0.00,,,0.00,Wunderground v.1.13,2013-02-20 21:33:00,
2013-02-20 13:39:00,49.1,23.3,29.77,SW,230,4.0,5.0,36,0.00,,,0.00,Wunderground v.1.13,2013-02-20 21:39:00,
2013-02-20 13:45:00,49.1,22.6,29.77,South,169,3.0,7.0,35,0.00,,,0.00,Wunderground v.1.13,2013-02-20 21:45:00,
2013-02-20 13:51:00,49.1,23.3,29.77,SW,229,7.0,8.0,36,0.00,,,0.00,Wunderground v.1.13,2013-02-20 21:51:00,
2013-02-20 13:57:00,48.9,23.1,29.77,WNW,289,7.0,8.0,36,0.00,,,0.00,Wunderground v.1.13,2013-02-20 21:57:00,
2013-02-20 14:03:00,48.9,23.1,29.77,West,261,6.0,12.0,36,0.00,,,0.00,Wunderground v.1.13,2013-02-20 22:03:00,
2013-02-20 14:08:00,48.9,22.4,29.77,SW,233,6.0,7.0,35,0.00,,,0.00,Wunderground v.1.13,2013-02-20 22:08:00,
2013-02-20 14:14:00,48.9,22.4,29.78,SW,215,4.0,6.0,35,0.00,,,0.00,Wunderground v.1.13,2013-02-20 22:14:00,
2013-02-20 14:20:00,48.9,22.4,29.78,ESE,119,4.0,4.0,35,0.00,,,0.00,Wunderground v.1.13,2013-02-20 22:20:00,
2013-02-20 14:26:00,48.9,22.4,29.78,SSE,152,4.0,4.0,35,0.00,,,0.00,Wunderground v.1.13,2013-02-20 22:26:00,
2013-02-20 14:32:00,48.9,22.4,29.78,South,175,6.0,10.0,35,0.00,,,0.00,Wunderground v.1.13,2013-02-20 22:32:00,
2013-02-20 14:38:00,48.9,21.0,29.78,SW,222,7.0,10.0,33,0.00,,,0.00,Wunderground v.1.13,2013-02-20 22:38:00,
2013-02-20 14:44:00,48.9,21.0,29.78,WSW,247,11.0,11.0,33,0.00,,,0.00,Wunderground v.1.13,2013-02-20 22:44:00,
2013-02-20 14:50:00,48.9,21.0,29.78,WSW,246,3.0,3.0,33,0.00,,,0.00,Wunderground v.1.13,2013-02-20 22:50:00,
2013-02-20 14:56:00,50.2,20.7,29.78,West,268,3.0,3.0,31,0.00,,,0.00,Wunderground v.1.13,2013-02-20 22:56:00,
2013-02-20 15:02:00,50.2,20.7,29.78,WSW,256,3.0,13.0,31,0.00,,,0.00,Wunderground v.1.13,2013-02-20 23:02:00,
2013-02-20 15:07:00,50.2,21.4,29.78,SSW,195,5.0,13.0,32,0.00,,,0.00,Wunderground v.1.13,2013-02-20 23:07:00,
2013-02-20 15:13:00,50.2,21.4,29.78,WSW,253,10.0,10.0,32,0.00,,,0.00,Wunderground v.1.13,2013-02-20 23:13:00,
2013-02-20 15:19:00,50.2,21.4,29.78,West,261,5.0,9.0,32,0.00,,,0.00,Wunderground v.1.13,2013-02-20 23:19:00,
2013-02-20 15:25:00,50.2,21.4,29.78,West,264,16.0,16.0,32,0.00,,,0.00,Wunderground v.1.13,2013-02-20 23:25:00,
2013-02-20 15:30:00,50.2,21.4,29.78,West,264,5.0,5.0,32,0.00,,,0.00,Wunderground v.1.13,2013-02-20 23:30:00,
2013-02-20 15:36:00,50.2,21.4,29.78,SW,223,10.0,11.0,32,0.00,,,0.00,Wunderground v.1.13,2013-02-20 23:36:00,
2013-02-20 15:42:00,50.2,21.4,29.78,SW,234,13.0,13.0,32,0.00,,,0.00,Wunderground v.1.13,2013-02-20 23:42:00,
2013-02-20 15:48:00,50.2,21.4,29.79,SW,236,20.0,20.0,32,0.00,,,0.00,Wunderground v.1.13,2013-02-20 23:48:00,
2013-02-20 15:54:00,50.2,21.4,29.79,SSW,210,15.0,21.0,32,0.00,,,0.00,Wunderground v.1.13,2013-02-20 23:54:00,
2013-02-20 16:00:00,50.2,21.4,29.79,SSW,193,12.0,13.0,32,0.00,,,0.00,Wunderground v.1.13,2013-02-21 00:00:00,
2013-02-20 16:05:00,50.2,21.4,29.79,SSW,200,10.0,10.0,32,0.00,,,0.00,Wunderground v.1.13,2013-02-21 00:05:00,
2013-02-20 16:11:00,50.2,21.4,29.79,West,265,7.0,14.0,32,0.00,,,0.00,Wunderground v.1.13,2013-02-21 00:11:00,
2013-02-20 16:16:00,50.2,21.4,29.78,West,270,9.0,17.0,32,0.00,,,0.00,Wunderground v.1.13,2013-02-21 00:16:00,
2013-02-20 16:22:00,48.3,19.8,29.78,SW,232,10.0,12.0,32,0.00,,,0.00,Wunderground v.1.13,2013-02-21 00:22:00,
2013-02-20 16:28:00,47.9,19.4,29.78,WSW,247,10.0,18.0,32,0.00,,,0.00,Wunderground v.1.13,2013-02-21 00:28:00,
2013-02-20 16:34:00,47.9,19.4,29.79,SSE,148,12.0,13.0,32,0.00,,,0.00,Wunderground v.1.13,2013-02-21 00:34:00,
2013-02-20 16:40:00,47.9,17.1,29.79,West,268,10.0,10.0,29,0.00,,,0.00,Wunderground v.1.13,2013-02-21 00:40:00,
2013-02-20 16:46:00,47.9,17.1,29.80,SSW,196,9.0,9.0,29,0.00,,,0.00,Wunderground v.1.13,2013-02-21 00:46:00,
2013-02-20 16:52:00,47.7,16.9,29.80,SW,215,6.0,6.0,29,0.00,,,0.00,Wunderground v.1.13,2013-02-21 00:52:00,
2013-02-20 16:58:00,47.7,16.9,29.80,SE,138,5.0,6.0,29,0.00,,,0.00,Wunderground v.1.13,2013-02-21 00:58:00,
2013-02-20 17:04:00,47.7,16.9,29.82,SSE,148,8.0,21.0,29,0.00,,,0.00,Wunderground v.1.13,2013-02-21 01:04:00,
2013-02-20 17:09:00,47.7,16.9,29.82,South,176,7.0,8.0,29,0.00,,,0.00,Wunderground v.1.13,2013-02-21 01:09:00,
2013-02-20 17:15:00,47.7,26.3,29.82,SW,219,5.0,5.0,43,0.00,,,0.00,Wunderground v.1.13,2013-02-21 01:15:00,
2013-02-20 17:21:00,42.9,22.5,29.82,SSE,157,5.0,6.0,44,0.00,,,0.00,Wunderground v.1.13,2013-02-21 01:21:00,
2013-02-20 17:27:00,42.3,21.9,29.82,SSW,195,5.0,16.0,44,0.00,,,0.00,Wunderground v.1.13,2013-02-21 01:27:00,
2013-02-20 17:33:00,41.6,22.3,29.84,South,174,7.0,10.0,46,0.00,,,0.00,Wunderground v.1.13,2013-02-21 01:33:00,
2013-02-20 17:39:00,41.2,23.0,29.84,SSW,205,9.0,21.0,48,0.00,,,0.00,Wunderground v.1.13,2013-02-21 01:39:00,
2013-02-20 17:45:00,41.1,21.3,29.83,West,268,10.0,15.0,45,0.00,,,0.00,Wunderground v.1.13,2013-02-21 01:45:00,
2013-02-20 17:51:00,41.8,20.9,29.83,WSW,247,9.0,9.0,43,0.00,,,0.00,Wunderground v.1.13,2013-02-21 01:51:00,
2013-02-20 17:56:00,41.8,22.0,29.83,WSW,239,9.0,10.0,45,0.00,,,0.00,Wunderground v.1.13,2013-02-21 01:56:00,
2013-02-20 18:02:00,41.5,19.5,29.84,SSW,208,7.0,10.0,41,0.00,,,0.00,Wunderground v.1.13,2013-02-21 02:02:00,
2013-02-20 18:08:00,41.5,18.4,29.84,WNW,288,6.0,22.0,39,0.00,,,0.00,Wunderground v.1.13,2013-02-21 02:08:00,
2013-02-20 18:14:00,42.1,18.9,29.85,SSW,212,7.0,11.0,39,0.00,,,0.00,Wunderground v.1.13,2013-02-21 02:14:00,
2013-02-20 18:20:00,42.2,19.0,29.85,SW,219,6.0,6.0,39,0.00,,,0.00,Wunderground v.1.13,2013-02-21 02:20:00,
2013-02-20 18:26:00,42.2,17.1,29.85,SW,226,7.0,7.0,36,0.00,,,0.00,Wunderground v.1.13,2013-02-21 02:26:00,
2013-02-20 18:32:00,42.5,16.7,29.85,SW,224,4.0,5.0,35,0.00,,,0.00,Wunderground v.1.13,2013-02-21 02:32:00,
2013-02-20 18:38:00,42.5,16.7,29.85,SW,236,4.0,11.0,35,0.00,,,0.00,Wunderground v.1.13,2013-02-21 02:38:00,
2013-02-20 18:43:00,42.6,16.8,29.85,SW,222,5.0,6.0,35,0.00,,,0.00,Wunderground v.1.13,2013-02-21 02:43:00,
2013-02-20 18:49:00,42.9,16.4,29.85,SSW,195,7.0,18.0,34,0.00,,,0.00,Wunderground v.1.13,2013-02-21 02:49:00,
2013-02-20 18:55:00,43.2,16.7,29.85,SW,234,9.0,18.0,34,0.00,,,0.00,Wunderground v.1.13,2013-02-21 02:55:00,
2013-02-20 19:01:00,43.1,17.3,29.86,WSW,248,11.0,14.0,35,0.00,,,0.00,Wunderground v.1.13,2013-02-21 03:01:00,
2013-02-20 19:06:00,43.3,17.4,29.86,NW,320,13.0,14.0,35,0.00,,,0.00,Wunderground v.1.13,2013-02-21 03:06:00,
2013-02-20 19:12:00,43.3,18.1,29.86,WNW,288,13.0,13.0,36,0.00,,,0.00,Wunderground v.1.13,2013-02-21 03:12:00,
2013-02-20 19:18:00,43.3,18.1,29.86,WNW,289,12.0,17.0,36,0.00,,,0.00,Wunderground v.1.13,2013-02-21 03:18:00,
2013-02-20 19:24:00,43.3,18.1,29.86,WNW,291,11.0,20.0,36,0.00,,,0.00,Wunderground v.1.13,2013-02-21 03:24:00,
2013-02-20 19:30:00,43.3,17.4,29.87,NW,304,11.0,12.0,35,0.00,,,0.00,Wunderground v.1.13,2013-02-21 03:30:00,
2013-02-20 19:36:00,43.5,18.9,29.87,WNW,284,9.0,10.0,37,0.00,,,0.00,Wunderground v.1.13,2013-02-21 03:36:00,
2013-02-20 19:41:00,43.3,18.7,29.87,West,272,8.0,8.0,37,0.00,,,0.00,Wunderground v.1.13,2013-02-21 03:41:00,
2013-02-20 19:47:00,43.2,18.6,29.89,WSW,240,8.0,17.0,37,0.00,,,0.00,Wunderground v.1.13,2013-02-21 03:47:00,
2013-02-20 19:52:00,43.3,18.7,29.89,WSW,243,12.0,21.0,37,0.00,,,0.00,Wunderground v.1.13,2013-02-21 03:52:00,
2013-02-20 19:58:00,43.3,18.7,29.89,WSW,257,13.0,20.0,37,0.00,,,0.00,Wunderground v.1.13,2013-02-21 03:58:00,
2013-02-20 20:04:00,43.5,18.9,29.88,WSW,241,11.0,31.0,37,0.00,,,0.00,Wunderground v.1.13,2013-02-21 04:04:00,
2013-02-20 20:10:00,43.6,18.4,29.88,West,281,10.0,10.0,36,0.00,,,0.00,Wunderground v.1.13,2013-02-21 04:10:00,
2013-02-20 20:15:00,43.8,17.9,29.86,WSW,253,9.0,9.0,35,0.00,,,0.00,Wunderground v.1.13,2013-02-21 04:15:00,
2013-02-20 20:21:00,43.8,19.2,29.86,West,280,10.0,15.0,37,0.00,,,0.00,Wunderground v.1.13,2013-02-21 04:21:00,
2013-02-20 20:27:00,43.8,17.9,29.86,WSW,241,9.0,11.0,35,0.00,,,0.00,Wunderground v.1.13,2013-02-21 04:27:00,
2013-02-20 20:33:00,43.5,19.5,29.87,WSW,241,7.0,8.0,38,0.00,,,0.00,Wunderground v.1.13,2013-02-21 04:33:00,
2013-02-20 20:39:00,42.5,20.4,29.87,WSW,241,2.0,5.0,41,0.00,,,0.00,Wunderground v.1.13,2013-02-21 04:39:00,
2013-02-20 20:45:00,41.5,19.5,29.88,WSW,258,1.0,7.0,41,0.00,,,0.00,Wunderground v.1.13,2013-02-21 04:45:00,
2013-02-20 20:50:00,41.5,19.5,29.88,West,275,1.0,1.0,41,0.00,,,0.00,Wunderground v.1.13,2013-02-21 04:50:00,
2013-02-20 20:56:00,41.5,20.1,29.88,West,275,0.0,3.0,42,0.00,,,0.00,Wunderground v.1.13,2013-02-21 04:56:00,
2013-02-20 21:00:00,41.3,20.5,29.89,West,275,0.0,0.0,43,0.00,,,0.00,Wunderground v.1.13,2013-02-21 05:00:00,
2013-02-20 21:02:00,41.2,20.4,29.89,West,275,0.0,30.0,43,0.00,,,0.00,Wunderground v.1.13,2013-02-21 05:02:00,
2013-02-20 21:06:00,41.1,19.7,29.89,West,275,0.0,0.0,42,0.00,,,0.00,Wunderground v.1.13,2013-02-21 05:06:00,
2013-02-20 21:11:00,40.9,20.6,29.89,West,270,1.0,3.0,44,0.00,,,0.00,Wunderground v.1.13,2013-02-21 05:11:00,
2013-02-20 21:17:00,40.3,21.1,29.89,WSW,250,1.0,1.0,46,0.00,,,0.00,Wunderground v.1.13,2013-02-21 05:17:00,
2013-02-20 21:23:00,40.3,20.6,29.89,SW,227,1.0,3.0,45,0.00,,,0.00,Wunderground v.1.13,2013-02-21 05:23:00,
2013-02-20 21:29:00,40.9,19.0,29.88,SW,234,2.0,5.0,41,0.00,,,0.00,Wunderground v.1.13,2013-02-21 05:29:00,
2013-02-20 21:34:00,41.1,20.8,29.88,SW,234,1.0,2.0,44,0.00,,,0.00,Wunderground v.1.13,2013-02-21 05:34:00,
2013-02-20 21:40:00,40.9,20.6,29.88,SW,234,1.0,1.0,44,0.00,,,0.00,Wunderground v.1.13,2013-02-21 05:40:00,
2013-02-20 21:45:00,40.3,20.6,29.89,SW,234,0.0,1.0,45,0.00,,,0.00,Wunderground v.1.13,2013-02-21 05:45:00,
2013-02-20 21:51:00,39.6,20.5,29.89,SW,233,1.0,2.0,46,0.00,,,0.00,Wunderground v.1.13,2013-02-21 05:51:00,
2013-02-20 21:58:00,39.2,20.1,29.89,SW,229,1.0,1.0,46,0.00,,,0.00,Wunderground v.1.13,2013-02-21 05:58:00,
2013-02-20 22:03:00,38.9,20.4,29.90,ESE,106,0.0,7.0,47,0.00,,,0.00,Wunderground v.1.13,2013-02-21 06:03:00,
2013-02-20 22:08:00,38.5,20.5,29.90,ESE,106,1.0,1.0,48,0.00,,,0.00,Wunderground v.1.13,2013-02-21 06:08:00,
2013-02-20 22:14:00,38.2,20.2,29.90,ESE,106,0.0,1.0,48,0.00,,,0.00,Wunderground v.1.13,2013-02-21 06:14:00,
2013-02-20 22:20:00,37.9,20.4,29.90,ESE,109,0.0,1.0,49,0.00,,,0.00,Wunderground v.1.13,2013-02-21 06:20:00,
2013-02-20 22:26:00,37.6,20.6,29.90,ESE,120,0.0,0.0,50,0.00,,,0.00,Wunderground v.1.13,2013-02-21 06:26:00,
2013-02-20 22:32:00,37.3,20.3,29.91,SE,130,0.0,0.0,50,0.00,,,0.00,Wunderground v.1.13,2013-02-21 06:32:00,
2013-02-20 22:38:00,37.3,21.7,29.91,SSW,192,1.0,2.0,53,0.00,,,0.00,Wunderground v.1.13,2013-02-21 06:38:00,
2013-02-20 22:44:00,37.3,22.2,29.90,SSW,196,1.0,3.0,54,0.00,,,0.00,Wunderground v.1.13,2013-02-21 06:44:00,
2013-02-20 22:50:00,37.3,21.7,29.90,SW,232,2.0,2.0,53,0.00,,,0.00,Wunderground v.1.13,2013-02-21 06:50:00,
2013-02-20 22:56:00,37.3,21.7,29.90,SW,232,1.0,1.0,53,0.00,,,0.00,Wunderground v.1.13,2013-02-21 06:56:00,
2013-02-20 23:02:00,37.3,21.7,29.91,SW,232,1.0,3.0,53,0.00,,,0.00,Wunderground v.1.13,2013-02-21 07:02:00,
2013-02-20 23:07:00,37.3,22.2,29.91,SW,233,2.0,5.0,54,0.00,,,0.00,Wunderground v.1.13,2013-02-21 07:07:00,
2013-02-20 23:13:00,37.3,22.6,29.91,WSW,248,2.0,5.0,55,0.00,,,0.00,Wunderground v.1.13,2013-02-21 07:13:00,
2013-02-20 23:19:00,37.2,22.9,29.90,SW,234,2.0,3.0,56,0.00,,,0.00,Wunderground v.1.13,2013-02-21 07:19:00,
2013-02-20 23:25:00,37.0,23.2,29.90,West,265,3.0,3.0,57,0.00,,,0.00,Wunderground v.1.13,2013-02-21 07:25:00,
2013-02-20 23:31:00,37.2,22.9,29.90,West,270,3.0,3.0,56,0.00,,,0.00,Wunderground v.1.13,2013-02-21 07:31:00,
2013-02-20 23:37:00,37.0,23.2,29.90,WSW,253,2.0,3.0,57,0.00,,,0.00,Wunderground v.1.13,2013-02-21 07:37:00,
2013-02-20 23:43:00,36.8,23.0,29.90,WSW,253,2.0,3.0,57,0.00,,,0.00,Wunderground v.1.13,2013-02-21 07:43:00,
2013-02-20 23:49:00,36.5,22.7,29.91,WSW,239,3.0,6.0,57,0.00,,,0.00,Wunderground v.1.13,2013-02-21 07:49:00,
2013-02-20 23:55:00,36.5,22.7,29.91,WSW,240,3.0,3.0,57,0.00,,,0.00,Wunderground v.1.13,2013-02-21 07:55:00,